sensor_id;sensor_type;location;lat;lon;timestamp;P1;durP1;ratioP1;P2;durP2;ratioP2
15528;SDS011;7866;52.280;9.500;2023-03-23T00:01:03;3.73;;;1.97;;
15528;SDS011;7866;52.280;9.500;2023-03-23T00:06:06;2.07;;;1.70;;
15528;SDS011;7866;52.280;9.500;2023-03-23T00:11:08;2.50;;;2.10;;
15528;SDS011;7866;52.280;9.500;2023-03-23T00:16:11;3.90;;;1.73;;
15528;SDS011;7866;52.280;9.500;2023-03-23T00:21:18;2.23;;;1.73;;
15528;SDS011;7866;52.280;9.500;2023-03-23T00:26:19;1.70;;;1.60;;
15528;SDS011;7866;52.280;9.500;2023-03-23T00:31:22;2.10;;;1.90;;
15528;SDS011;7866;52.280;9.500;2023-03-23T00:36:24;2.20;;;1.97;;
15528;SDS011;7866;52.280;9.500;2023-03-23T00:41:27;2.20;;;2.00;;
15528;SDS011;7866;52.280;9.500;2023-03-23T00:46:31;2.17;;;1.97;;
15528;SDS011;7866;52.280;9.500;2023-03-23T00:51:32;3.57;;;2.00;;
15528;SDS011;7866;52.280;9.500;2023-03-23T00:56:34;2.73;;;1.90;;
15528;SDS011;7866;52.280;9.500;2023-03-23T01:01:38;2.63;;;1.93;;
15528;SDS011;7866;52.280;9.500;2023-03-23T01:06:41;3.60;;;2.50;;
15528;SDS011;7866;52.280;9.500;2023-03-23T01:11:45;2.60;;;1.93;;
15528;SDS011;7866;52.280;9.500;2023-03-23T01:16:48;3.73;;;2.10;;
15528;SDS011;7866;52.280;9.500;2023-03-23T01:21:50;4.30;;;2.07;;
15528;SDS011;7866;52.280;9.500;2023-03-23T01:26:51;3.83;;;2.17;;
15528;SDS011;7866;52.280;9.500;2023-03-23T01:31:54;2.83;;;2.00;;
15528;SDS011;7866;52.280;9.500;2023-03-23T01:36:56;3.67;;;2.20;;
15528;SDS011;7866;52.280;9.500;2023-03-23T01:41:58;3.27;;;2.07;;
15528;SDS011;7866;52.280;9.500;2023-03-23T01:47:01;2.33;;;1.90;;
15528;SDS011;7866;52.280;9.500;2023-03-23T01:52:04;3.30;;;2.00;;
15528;SDS011;7866;52.280;9.500;2023-03-23T01:57:09;2.50;;;1.90;;
15528;SDS011;7866;52.280;9.500;2023-03-23T02:02:15;2.50;;;1.80;;
15528;SDS011;7866;52.280;9.500;2023-03-23T02:07:19;3.10;;;2.20;;
15528;SDS011;7866;52.280;9.500;2023-03-23T02:12:21;3.13;;;1.90;;
15528;SDS011;7866;52.280;9.500;2023-03-23T02:17:25;3.47;;;2.00;;
15528;SDS011;7866;52.280;9.500;2023-03-23T02:22:43;3.20;;;1.93;;
15528;SDS011;7866;52.280;9.500;2023-03-23T02:28:02;2.03;;;1.80;;
15528;SDS011;7866;52.280;9.500;2023-03-23T02:38:49;2.43;;;1.77;;
15528;SDS011;7866;52.280;9.500;2023-03-23T02:43:54;3.03;;;2.10;;
15528;SDS011;7866;52.280;9.500;2023-03-23T02:48:59;2.20;;;1.90;;
15528;SDS011;7866;52.280;9.500;2023-03-23T02:54:03;2.93;;;2.10;;
15528;SDS011;7866;52.280;9.500;2023-03-23T02:59:06;2.40;;;2.00;;
15528;SDS011;7866;52.280;9.500;2023-03-23T03:04:11;2.87;;;1.93;;
15528;SDS011;7866;52.280;9.500;2023-03-23T03:09:17;2.73;;;1.87;;
15528;SDS011;7866;52.280;9.500;2023-03-23T03:14:26;2.67;;;1.90;;
15528;SDS011;7866;52.280;9.500;2023-03-23T03:19:34;2.80;;;1.87;;
15528;SDS011;7866;52.280;9.500;2023-03-23T03:24:39;2.10;;;2.00;;
15528;SDS011;7866;52.280;9.500;2023-03-23T03:29:43;2.20;;;2.00;;
15528;SDS011;7866;52.280;9.500;2023-03-23T03:34:49;2.10;;;1.90;;
15528;SDS011;7866;52.280;9.500;2023-03-23T03:39:52;3.33;;;2.00;;
15528;SDS011;7866;52.280;9.500;2023-03-23T03:44:53;2.37;;;1.80;;
15528;SDS011;7866;52.280;9.500;2023-03-23T03:49:56;2.23;;;1.90;;
15528;SDS011;7866;52.280;9.500;2023-03-23T03:54:58;2.70;;;1.90;;
15528;SDS011;7866;52.280;9.500;2023-03-23T04:00:00;2.13;;;1.63;;
15528;SDS011;7866;52.280;9.500;2023-03-23T04:05:13;1.70;;;1.60;;
15528;SDS011;7866;52.280;9.500;2023-03-23T04:10:15;2.73;;;1.80;;
15528;SDS011;7866;52.280;9.500;2023-03-23T04:15:19;1.63;;;1.53;;
15528;SDS011;7866;52.280;9.500;2023-03-23T04:20:22;1.70;;;1.53;;
15528;SDS011;7866;52.280;9.500;2023-03-23T04:25:25;1.73;;;1.30;;
15528;SDS011;7866;52.280;9.500;2023-03-23T04:30:27;2.37;;;1.60;;
15528;SDS011;7866;52.280;9.500;2023-03-23T04:35:33;1.97;;;1.43;;
15528;SDS011;7866;52.280;9.500;2023-03-23T04:40:35;1.90;;;1.40;;
15528;SDS011;7866;52.280;9.500;2023-03-23T04:45:38;1.50;;;1.27;;
15528;SDS011;7866;52.280;9.500;2023-03-23T04:50:42;1.60;;;1.50;;
15528;SDS011;7866;52.280;9.500;2023-03-23T04:55:44;1.93;;;1.20;;
15528;SDS011;7866;52.280;9.500;2023-03-23T05:00:47;1.50;;;1.40;;
15528;SDS011;7866;52.280;9.500;2023-03-23T05:05:50;2.00;;;1.40;;
15528;SDS011;7866;52.280;9.500;2023-03-23T05:10:54;1.43;;;1.33;;
15528;SDS011;7866;52.280;9.500;2023-03-23T05:15:57;1.23;;;1.17;;
15528;SDS011;7866;52.280;9.500;2023-03-23T05:21:01;1.17;;;1.10;;
15528;SDS011;7866;52.280;9.500;2023-03-23T05:26:03;0.90;;;0.90;;
15528;SDS011;7866;52.280;9.500;2023-03-23T05:31:06;1.23;;;1.00;;
15528;SDS011;7866;52.280;9.500;2023-03-23T05:36:09;1.90;;;1.80;;
15528;SDS011;7866;52.280;9.500;2023-03-23T05:41:13;3.07;;;2.87;;
15528;SDS011;7866;52.280;9.500;2023-03-23T05:46:15;1.97;;;1.80;;
15528;SDS011;7866;52.280;9.500;2023-03-23T05:51:19;1.80;;;1.00;;
15528;SDS011;7866;52.280;9.500;2023-03-23T05:56:21;1.10;;;1.00;;
15528;SDS011;7866;52.280;9.500;2023-03-23T06:01:22;2.03;;;1.00;;
15528;SDS011;7866;52.280;9.500;2023-03-23T06:06:25;2.30;;;1.30;;
15528;SDS011;7866;52.280;9.500;2023-03-23T06:11:27;1.40;;;0.90;;
15528;SDS011;7866;52.280;9.500;2023-03-23T06:16:28;0.90;;;0.90;;
15528;SDS011;7866;52.280;9.500;2023-03-23T06:21:32;0.97;;;0.97;;
15528;SDS011;7866;52.280;9.500;2023-03-23T06:26:35;2.20;;;1.10;;
15528;SDS011;7866;52.280;9.500;2023-03-23T06:31:39;1.13;;;1.03;;
15528;SDS011;7866;52.280;9.500;2023-03-23T06:36:43;0.93;;;0.90;;
15528;SDS011;7866;52.280;9.500;2023-03-23T06:41:44;1.10;;;1.10;;
15528;SDS011;7866;52.280;9.500;2023-03-23T06:46:46;1.10;;;1.10;;
15528;SDS011;7866;52.280;9.500;2023-03-23T06:51:49;1.30;;;1.20;;
15528;SDS011;7866;52.280;9.500;2023-03-23T06:56:51;1.27;;;1.17;;
15528;SDS011;7866;52.280;9.500;2023-03-23T07:01:53;1.47;;;1.30;;
15528;SDS011;7866;52.280;9.500;2023-03-23T07:06:55;1.00;;;1.00;;
15528;SDS011;7866;52.280;9.500;2023-03-23T07:11:57;2.43;;;1.50;;
15528;SDS011;7866;52.280;9.500;2023-03-23T07:16:59;1.23;;;1.23;;
15528;SDS011;7866;52.280;9.500;2023-03-23T07:22:03;1.20;;;1.20;;
15528;SDS011;7866;52.280;9.500;2023-03-23T07:27:05;1.30;;;1.20;;
15528;SDS011;7866;52.280;9.500;2023-03-23T07:32:08;2.63;;;1.60;;
15528;SDS011;7866;52.280;9.500;2023-03-23T07:37:13;1.60;;;1.50;;
15528;SDS011;7866;52.280;9.500;2023-03-23T07:42:15;1.50;;;1.40;;
15528;SDS011;7866;52.280;9.500;2023-03-23T07:47:17;2.20;;;1.60;;
15528;SDS011;7866;52.280;9.500;2023-03-23T07:52:20;1.27;;;1.20;;
15528;SDS011;7866;52.280;9.500;2023-03-23T07:57:22;2.93;;;1.40;;
15528;SDS011;7866;52.280;9.500;2023-03-23T08:02:24;2.07;;;1.50;;
15528;SDS011;7866;52.280;9.500;2023-03-23T08:07:27;3.83;;;1.60;;
15528;SDS011;7866;52.280;9.500;2023-03-23T08:12:29;4.10;;;1.40;;
15528;SDS011;7866;52.280;9.500;2023-03-23T08:17:31;2.10;;;1.60;;
15528;SDS011;7866;52.280;9.500;2023-03-23T08:22:34;1.90;;;1.70;;
15528;SDS011;7866;52.280;9.500;2023-03-23T08:27:36;1.63;;;1.50;;
15528;SDS011;7866;52.280;9.500;2023-03-23T08:32:43;2.90;;;1.55;;
15528;SDS011;7866;52.280;9.500;2023-03-23T08:37:46;1.90;;;1.80;;
15528;SDS011;7866;52.280;9.500;2023-03-23T08:42:51;2.10;;;1.73;;
15528;SDS011;7866;52.280;9.500;2023-03-23T08:47:54;3.77;;;1.60;;
15528;SDS011;7866;52.280;9.500;2023-03-23T08:52:57;2.05;;;1.50;;
15528;SDS011;7866;52.280;9.500;2023-03-23T08:57:59;3.20;;;1.52;;
15528;SDS011;7866;52.280;9.500;2023-03-23T09:03:01;6.53;;;2.00;;
15528;SDS011;7866;52.280;9.500;2023-03-23T09:08:05;3.72;;;1.90;;
15528;SDS011;7866;52.280;9.500;2023-03-23T09:13:08;3.97;;;1.85;;
15528;SDS011;7866;52.280;9.500;2023-03-23T09:18:10;4.43;;;1.90;;
15528;SDS011;7866;52.280;9.500;2023-03-23T09:23:14;2.53;;;1.75;;
15528;SDS011;7866;52.280;9.500;2023-03-23T09:28:15;3.97;;;2.13;;
15528;SDS011;7866;52.280;9.500;2023-03-23T09:33:17;4.10;;;1.60;;
15528;SDS011;7866;52.280;9.500;2023-03-23T09:38:20;3.25;;;2.10;;
15528;SDS011;7866;52.280;9.500;2023-03-23T09:43:31;5.35;;;2.10;;
15528;SDS011;7866;52.280;9.500;2023-03-23T09:48:44;7.13;;;1.87;;
15528;SDS011;7866;52.280;9.500;2023-03-23T09:53:52;6.25;;;2.88;;
15528;SDS011;7866;52.280;9.500;2023-03-23T09:58:57;5.50;;;2.33;;
15528;SDS011;7866;52.280;9.500;2023-03-23T10:04:03;4.57;;;1.95;;
15528;SDS011;7866;52.280;9.500;2023-03-23T10:09:14;5.22;;;2.00;;
15528;SDS011;7866;52.280;9.500;2023-03-23T10:14:21;7.07;;;2.15;;
15528;SDS011;7866;52.280;9.500;2023-03-23T10:19:34;2.63;;;1.55;;
15528;SDS011;7866;52.280;9.500;2023-03-23T10:24:43;4.72;;;2.15;;
15528;SDS011;7866;52.280;9.500;2023-03-23T10:29:52;2.40;;;1.75;;
15528;SDS011;7866;52.280;9.500;2023-03-23T10:34:59;4.88;;;1.85;;
15528;SDS011;7866;52.280;9.500;2023-03-23T10:40:11;5.78;;;1.85;;
15528;SDS011;7866;52.280;9.500;2023-03-23T10:45:22;3.38;;;1.63;;
15528;SDS011;7866;52.280;9.500;2023-03-23T10:50:27;3.70;;;1.75;;
15528;SDS011;7866;52.280;9.500;2023-03-23T10:55:36;4.45;;;1.75;;
15528;SDS011;7866;52.280;9.500;2023-03-23T11:00:40;4.20;;;1.98;;
15528;SDS011;7866;52.280;9.500;2023-03-23T11:05:44;4.80;;;2.25;;
15528;SDS011;7866;52.280;9.500;2023-03-23T11:10:52;5.43;;;2.20;;
15528;SDS011;7866;52.280;9.500;2023-03-23T11:15:54;5.03;;;2.22;;
15528;SDS011;7866;52.280;9.500;2023-03-23T11:20:57;8.02;;;2.10;;
15528;SDS011;7866;52.280;9.500;2023-03-23T11:26:03;3.92;;;2.13;;
15528;SDS011;7866;52.280;9.500;2023-03-23T11:31:10;3.80;;;1.92;;
15528;SDS011;7866;52.280;9.500;2023-03-23T11:36:11;4.18;;;1.90;;
15528;SDS011;7866;52.280;9.500;2023-03-23T11:41:18;4.70;;;2.00;;
15528;SDS011;7866;52.280;9.500;2023-03-23T11:46:24;4.85;;;2.08;;
15528;SDS011;7866;52.280;9.500;2023-03-23T11:51:37;7.05;;;2.53;;
15528;SDS011;7866;52.280;9.500;2023-03-23T11:56:44;4.57;;;2.13;;
15528;SDS011;7866;52.280;9.500;2023-03-23T12:01:48;4.80;;;1.55;;
15528;SDS011;7866;52.280;9.500;2023-03-23T12:06:54;2.78;;;1.30;;
15528;SDS011;7866;52.280;9.500;2023-03-23T12:12:10;3.53;;;1.50;;
15528;SDS011;7866;52.280;9.500;2023-03-23T12:17:18;1.00;;;0.90;;
15528;SDS011;7866;52.280;9.500;2023-03-23T12:22:30;1.03;;;0.83;;
15528;SDS011;7866;52.280;9.500;2023-03-23T12:27:44;0.80;;;0.70;;
15528;SDS011;7866;52.280;9.500;2023-03-23T12:32:55;1.60;;;0.60;;
15528;SDS011;7866;52.280;9.500;2023-03-23T12:38:13;1.27;;;0.67;;
15528;SDS011;7866;52.280;9.500;2023-03-23T12:43:25;1.23;;;0.67;;
15528;SDS011;7866;52.280;9.500;2023-03-23T12:48:33;1.13;;;0.70;;
15528;SDS011;7866;52.280;9.500;2023-03-23T12:53:42;1.07;;;0.40;;
15528;SDS011;7866;52.280;9.500;2023-03-23T12:58:57;0.40;;;0.37;;
15528;SDS011;7866;52.280;9.500;2023-03-23T13:04:05;1.00;;;0.50;;
15528;SDS011;7866;52.280;9.500;2023-03-23T13:09:12;0.80;;;0.60;;
15528;SDS011;7866;52.280;9.500;2023-03-23T13:14:21;0.97;;;0.60;;
15528;SDS011;7866;52.280;9.500;2023-03-23T13:19:32;1.67;;;0.70;;
15528;SDS011;7866;52.280;9.500;2023-03-23T13:24:54;10.43;;;1.23;;
15528;SDS011;7866;52.280;9.500;2023-03-23T13:30:02;0.50;;;0.40;;
15528;SDS011;7866;52.280;9.500;2023-03-23T13:35:13;3.53;;;1.30;;
15528;SDS011;7866;52.280;9.500;2023-03-23T13:40:21;0.93;;;0.57;;
15528;SDS011;7866;52.280;9.500;2023-03-23T13:45:42;0.47;;;0.43;;
15528;SDS011;7866;52.280;9.500;2023-03-23T13:50:48;0.97;;;0.60;;
15528;SDS011;7866;52.280;9.500;2023-03-23T13:56:03;0.63;;;0.63;;
15528;SDS011;7866;52.280;9.500;2023-03-23T14:01:13;5.23;;;0.80;;
15528;SDS011;7866;52.280;9.500;2023-03-23T14:06:18;1.70;;;0.80;;
15528;SDS011;7866;52.280;9.500;2023-03-23T14:11:24;1.07;;;0.70;;
15528;SDS011;7866;52.280;9.500;2023-03-23T14:16:37;0.47;;;0.47;;
15528;SDS011;7866;52.280;9.500;2023-03-23T14:21:41;2.63;;;0.90;;
15528;SDS011;7866;52.280;9.500;2023-03-23T14:26:49;2.43;;;0.80;;
15528;SDS011;7866;52.280;9.500;2023-03-23T14:31:55;1.30;;;0.90;;
15528;SDS011;7866;52.280;9.500;2023-03-23T14:36:58;1.20;;;1.10;;
15528;SDS011;7866;52.280;9.500;2023-03-23T14:42:01;0.97;;;0.90;;
15528;SDS011;7866;52.280;9.500;2023-03-23T14:47:09;1.00;;;0.97;;
15528;SDS011;7866;52.280;9.500;2023-03-23T14:52:17;1.80;;;1.00;;
15528;SDS011;7866;52.280;9.500;2023-03-23T14:57:20;0.67;;;0.60;;
15528;SDS011;7866;52.280;9.500;2023-03-23T15:02:30;0.80;;;0.80;;
15528;SDS011;7866;52.280;9.500;2023-03-23T15:07:35;2.03;;;0.70;;
15528;SDS011;7866;52.280;9.500;2023-03-23T15:12:38;1.63;;;1.13;;
15528;SDS011;7866;52.280;9.500;2023-03-23T15:17:41;0.77;;;0.60;;
15528;SDS011;7866;52.280;9.500;2023-03-23T15:22:47;2.40;;;1.30;;
15528;SDS011;7866;52.280;9.500;2023-03-23T15:27:51;1.43;;;1.00;;
15528;SDS011;7866;52.280;9.500;2023-03-23T15:32:59;2.37;;;0.97;;
15528;SDS011;7866;52.280;9.500;2023-03-23T15:38:03;0.93;;;0.93;;
15528;SDS011;7866;52.280;9.500;2023-03-23T15:43:08;1.07;;;1.07;;
15528;SDS011;7866;52.280;9.500;2023-03-23T15:48:18;1.77;;;1.00;;
15528;SDS011;7866;52.280;9.500;2023-03-23T15:53:27;1.53;;;0.97;;
15528;SDS011;7866;52.280;9.500;2023-03-23T15:58:31;1.20;;;1.10;;
15528;SDS011;7866;52.280;9.500;2023-03-23T16:03:36;1.77;;;1.30;;
15528;SDS011;7866;52.280;9.500;2023-03-23T16:08:42;1.57;;;0.93;;
15528;SDS011;7866;52.280;9.500;2023-03-23T16:13:43;1.37;;;1.10;;
15528;SDS011;7866;52.280;9.500;2023-03-23T16:18:47;1.10;;;0.93;;
15528;SDS011;7866;52.280;9.500;2023-03-23T16:23:49;1.17;;;1.03;;
15528;SDS011;7866;52.280;9.500;2023-03-23T16:28:51;1.13;;;1.10;;
15528;SDS011;7866;52.280;9.500;2023-03-23T16:33:54;1.10;;;1.00;;
15528;SDS011;7866;52.280;9.500;2023-03-23T16:38:55;3.03;;;1.17;;
15528;SDS011;7866;52.280;9.500;2023-03-23T16:43:57;2.30;;;1.30;;
15528;SDS011;7866;52.280;9.500;2023-03-23T16:49:00;2.80;;;1.43;;
15528;SDS011;7866;52.280;9.500;2023-03-23T16:54:01;2.57;;;1.57;;
15528;SDS011;7866;52.280;9.500;2023-03-23T16:59:03;3.00;;;1.07;;
15528;SDS011;7866;52.280;9.500;2023-03-23T17:04:06;3.90;;;1.50;;
15528;SDS011;7866;52.280;9.500;2023-03-23T17:09:08;1.60;;;1.50;;
15528;SDS011;7866;52.280;9.500;2023-03-23T17:14:09;2.57;;;1.57;;
15528;SDS011;7866;52.280;9.500;2023-03-23T17:19:13;1.83;;;1.40;;
15528;SDS011;7866;52.280;9.500;2023-03-23T17:24:14;2.37;;;1.30;;
15528;SDS011;7866;52.280;9.500;2023-03-23T17:29:16;2.23;;;1.60;;
15528;SDS011;7866;52.280;9.500;2023-03-23T17:34:19;2.73;;;1.50;;
15528;SDS011;7866;52.280;9.500;2023-03-23T17:39:21;1.60;;;1.50;;
15528;SDS011;7866;52.280;9.500;2023-03-23T17:44:23;1.87;;;1.60;;
15528;SDS011;7866;52.280;9.500;2023-03-23T17:49:26;3.07;;;1.90;;
15528;SDS011;7866;52.280;9.500;2023-03-23T17:54:29;2.37;;;1.70;;
15528;SDS011;7866;52.280;9.500;2023-03-23T17:59:30;4.03;;;1.80;;
15528;SDS011;7866;52.280;9.500;2023-03-23T18:04:34;4.17;;;2.17;;
15528;SDS011;7866;52.280;9.500;2023-03-23T18:09:35;1.83;;;1.73;;
15528;SDS011;7866;52.280;9.500;2023-03-23T18:14:37;1.80;;;1.70;;
15528;SDS011;7866;52.280;9.500;2023-03-23T18:19:40;4.73;;;3.60;;
15528;SDS011;7866;52.280;9.500;2023-03-23T18:24:45;3.23;;;2.60;;
15528;SDS011;7866;52.280;9.500;2023-03-23T18:29:47;5.43;;;2.30;;
15528;SDS011;7866;52.280;9.500;2023-03-23T18:34:50;4.17;;;2.23;;
15528;SDS011;7866;52.280;9.500;2023-03-23T18:39:52;3.43;;;2.40;;
15528;SDS011;7866;52.280;9.500;2023-03-23T18:44:53;2.10;;;1.90;;
15528;SDS011;7866;52.280;9.500;2023-03-23T18:49:56;3.13;;;1.83;;
15528;SDS011;7866;52.280;9.500;2023-03-23T18:54:58;3.03;;;2.10;;
15528;SDS011;7866;52.280;9.500;2023-03-23T19:00:00;3.83;;;1.80;;
15528;SDS011;7866;52.280;9.500;2023-03-23T19:05:05;2.50;;;1.80;;
15528;SDS011;7866;52.280;9.500;2023-03-23T19:10:07;2.23;;;1.73;;
15528;SDS011;7866;52.280;9.500;2023-03-23T19:15:09;2.07;;;1.90;;
15528;SDS011;7866;52.280;9.500;2023-03-23T19:20:12;2.57;;;1.80;;
15528;SDS011;7866;52.280;9.500;2023-03-23T19:25:14;2.53;;;1.97;;
15528;SDS011;7866;52.280;9.500;2023-03-23T19:30:16;1.70;;;1.60;;
15528;SDS011;7866;52.280;9.500;2023-03-23T19:35:20;1.93;;;1.40;;
15528;SDS011;7866;52.280;9.500;2023-03-23T19:40:21;2.17;;;1.63;;
15528;SDS011;7866;52.280;9.500;2023-03-23T19:45:23;3.00;;;1.60;;
15528;SDS011;7866;52.280;9.500;2023-03-23T19:50:26;1.87;;;1.67;;
15528;SDS011;7866;52.280;9.500;2023-03-23T19:55:28;3.80;;;2.03;;
15528;SDS011;7866;52.280;9.500;2023-03-23T20:00:30;2.00;;;1.43;;
15528;SDS011;7866;52.280;9.500;2023-03-23T20:05:33;3.00;;;1.67;;
15528;SDS011;7866;52.280;9.500;2023-03-23T20:10:36;3.07;;;1.50;;
15528;SDS011;7866;52.280;9.500;2023-03-23T20:15:39;1.50;;;1.40;;
15528;SDS011;7866;52.280;9.500;2023-03-23T20:20:42;1.93;;;1.60;;
15528;SDS011;7866;52.280;9.500;2023-03-23T20:25:44;1.57;;;1.47;;
15528;SDS011;7866;52.280;9.500;2023-03-23T20:30:46;3.37;;;1.87;;
15528;SDS011;7866;52.280;9.500;2023-03-23T20:35:49;2.17;;;1.40;;
15528;SDS011;7866;52.280;9.500;2023-03-23T20:40:51;2.07;;;1.97;;
15528;SDS011;7866;52.280;9.500;2023-03-23T20:45:54;2.77;;;1.73;;
15528;SDS011;7866;52.280;9.500;2023-03-23T20:50:58;2.23;;;1.40;;
15528;SDS011;7866;52.280;9.500;2023-03-23T20:56:01;1.70;;;1.43;;
15528;SDS011;7866;52.280;9.500;2023-03-23T21:01:04;1.87;;;1.53;;
15528;SDS011;7866;52.280;9.500;2023-03-23T21:06:09;1.47;;;1.37;;
15528;SDS011;7866;52.280;9.500;2023-03-23T21:11:12;1.97;;;1.20;;
15528;SDS011;7866;52.280;9.500;2023-03-23T21:16:17;1.60;;;1.20;;
15528;SDS011;7866;52.280;9.500;2023-03-23T21:21:22;2.80;;;1.43;;
15528;SDS011;7866;52.280;9.500;2023-03-23T21:26:27;3.33;;;1.47;;
15528;SDS011;7866;52.280;9.500;2023-03-23T21:31:29;2.33;;;1.20;;
15528;SDS011;7866;52.280;9.500;2023-03-23T21:36:33;3.23;;;1.60;;
15528;SDS011;7866;52.280;9.500;2023-03-23T21:41:35;3.23;;;1.40;;
15528;SDS011;7866;52.280;9.500;2023-03-23T21:46:37;4.60;;;1.70;;
15528;SDS011;7866;52.280;9.500;2023-03-23T21:51:42;1.53;;;1.43;;
15528;SDS011;7866;52.280;9.500;2023-03-23T21:56:44;3.27;;;1.53;;
15528;SDS011;7866;52.280;9.500;2023-03-23T22:01:45;1.53;;;1.43;;
15528;SDS011;7866;52.280;9.500;2023-03-23T22:06:49;2.33;;;1.50;;
15528;SDS011;7866;52.280;9.500;2023-03-23T22:11:50;3.40;;;1.60;;
15528;SDS011;7866;52.280;9.500;2023-03-23T22:16:52;1.93;;;1.30;;
15528;SDS011;7866;52.280;9.500;2023-03-23T22:21:56;2.57;;;1.60;;
15528;SDS011;7866;52.280;9.500;2023-03-23T22:26:57;1.60;;;1.50;;
15528;SDS011;7866;52.280;9.500;2023-03-23T22:31:59;2.10;;;1.67;;
15528;SDS011;7866;52.280;9.500;2023-03-23T22:37:02;3.10;;;1.80;;
15528;SDS011;7866;52.280;9.500;2023-03-23T22:42:04;2.23;;;1.47;;
15528;SDS011;7866;52.280;9.500;2023-03-23T22:47:06;2.40;;;1.57;;
15528;SDS011;7866;52.280;9.500;2023-03-23T22:52:09;3.40;;;1.70;;
15528;SDS011;7866;52.280;9.500;2023-03-23T22:57:11;3.60;;;1.50;;
15528;SDS011;7866;52.280;9.500;2023-03-23T23:02:13;1.80;;;1.63;;
15528;SDS011;7866;52.280;9.500;2023-03-23T23:07:16;3.27;;;1.57;;
15528;SDS011;7866;52.280;9.500;2023-03-23T23:12:18;1.53;;;1.20;;
15528;SDS011;7866;52.280;9.500;2023-03-23T23:17:20;2.00;;;1.80;;
15528;SDS011;7866;52.280;9.500;2023-03-23T23:22:23;3.23;;;1.83;;
15528;SDS011;7866;52.280;9.500;2023-03-23T23:27:25;2.43;;;1.53;;
15528;SDS011;7866;52.280;9.500;2023-03-23T23:32:27;3.33;;;1.80;;
15528;SDS011;7866;52.280;9.500;2023-03-23T23:37:30;1.67;;;1.40;;
15528;SDS011;7866;52.280;9.500;2023-03-23T23:42:32;3.60;;;1.50;;
15528;SDS011;7866;52.280;9.500;2023-03-23T23:47:33;3.43;;;1.80;;
15528;SDS011;7866;52.280;9.500;2023-03-23T23:52:38;2.20;;;1.50;;
15528;SDS011;7866;52.280;9.500;2023-03-23T23:57:41;1.67;;;1.57;;
